Time;durP1;ratioP1;P1;durP2;ratioP2;P2;SDS_P1;SDS_P2;PMS_P1;PMS_P2;Temp;Humidity;BMP_temperature;BMP_pressure;BME280_temperature;BME280_humidity;BME280_pressure;Samples;Min_cycle;Max_cycle;Signal;HPM_P1;HPM_P2
2021/07/04 00:01:12;;;;;;;7.50;6.13;;;;;;;;;;5071140;28;20511;-65
2021/07/04 00:03:38;;;;;;;10.30;6.37;;;;;;;;;;5072919;28;20452;-65
2021/07/04 00:06:04;;;;;;;7.47;6.70;;;;;;;;;;5071617;28;20848;-65
2021/07/04 00:08:30;;;;;;;7.80;6.30;;;;;;;;;;5071601;28;20454;-65
2021/07/04 00:10:58;;;;;;;9.30;7.20;;;;;;;;;;5071876;28;20919;-64
2021/07/04 00:13:25;;;;;;;7.50;5.80;;;;;;;;;;5071886;28;20530;-64
2021/07/04 00:15:52;;;;;;;11.00;7.27;;;;;;;;;;5071084;28;20491;-64
2021/07/04 00:18:22;;;;;;;7.40;6.27;;;;;;;;;;5053043;28;20409;-64
2021/07/04 00:20:49;;;;;;;9.20;6.17;;;;;;;;;;5053276;28;20520;-64
2021/07/04 00:23:16;;;;;;;7.87;6.10;;;;;;;;;;5072445;28;20468;-65
2021/07/04 00:25:42;;;;;;;8.27;7.47;;;;;;;;;;5072399;28;20396;-63
2021/07/04 00:28:08;;;;;;;8.00;6.40;;;;;;;;;;5053034;28;20415;-65
2021/07/04 00:30:34;;;;;;;8.20;6.37;;;;;;;;;;5052534;28;20398;-66
2021/07/04 00:33:01;;;;;;;9.60;7.17;;;;;;;;;;5070687;28;20747;-64
2021/07/04 00:35:27;;;;;;;9.13;6.60;;;;;;;;;;5072962;28;20726;-65
2021/07/04 00:37:53;;;;;;;7.37;6.40;;;;;;;;;;5054770;28;20504;-64
2021/07/04 00:40:20;;;;;;;7.23;6.20;;;;;;;;;;5055891;28;20437;-65
2021/07/04 00:42:46;;;;;;;7.77;6.93;;;;;;;;;;5072550;28;20444;-65
2021/07/04 00:45:13;;;;;;;9.10;6.90;;;;;;;;;;5072633;28;20397;-65
2021/07/04 00:47:40;;;;;;;9.23;6.90;;;;;;;;;;5057384;28;20934;-64
2021/07/04 00:50:06;;;;;;;8.37;6.53;;;;;;;;;;5052529;28;20765;-64
2021/07/04 00:52:33;;;;;;;9.87;7.20;;;;;;;;;;5064985;28;20452;-65
2021/07/04 00:54:59;;;;;;;11.00;7.83;;;;;;;;;;5072694;28;20433;-65
2021/07/04 00:57:26;;;;;;;9.73;6.30;;;;;;;;;;5071776;28;20433;-64
2021/07/04 00:59:52;;;;;;;8.60;7.20;;;;;;;;;;5072740;28;20461;-65
2021/07/04 01:02:18;;;;;;;9.00;7.53;;;;;;;;;;5071492;28;20444;-65
2021/07/04 01:04:44;;;;;;;7.90;6.40;;;;;;;;;;5072777;28;20763;-66
2021/07/04 01:07:10;;;;;;;8.90;6.43;;;;;;;;;;5071657;28;20421;-65
2021/07/04 01:09:37;;;;;;;10.27;6.90;;;;;;;;;;5072398;28;20817;-65
2021/07/04 01:12:04;;;;;;;7.97;6.53;;;;;;;;;;5085560;28;20462;-65
2021/07/04 01:14:30;;;;;;;9.50;6.30;;;;;;;;;;5092590;28;20422;-64
2021/07/04 01:16:58;;;;;;;8.07;7.23;;;;;;;;;;5073152;28;20412;-64
2021/07/04 01:19:25;;;;;;;8.03;5.63;;;;;;;;;;5072214;28;20908;-65
2021/07/04 01:21:53;;;;;;;7.63;5.57;;;;;;;;;;5070996;28;20429;-64
2021/07/04 01:24:20;;;;;;;7.20;5.90;;;;;;;;;;5072416;28;20520;-64
2021/07/04 01:26:46;;;;;;;8.67;7.10;;;;;;;;;;5074994;28;20424;-64
2021/07/04 01:29:12;;;;;;;8.30;6.00;;;;;;;;;;5076006;28;20497;-64
2021/07/04 01:31:38;;;;;;;7.57;6.40;;;;;;;;;;5075146;28;20497;-64
2021/07/04 01:34:04;;;;;;;8.83;6.63;;;;;;;;;;5070602;28;20424;-65
2021/07/04 01:36:30;;;;;;;7.80;5.73;;;;;;;;;;5070045;28;20450;-65
2021/07/04 01:38:57;;;;;;;8.40;6.20;;;;;;;;;;5075830;28;20397;-64
2021/07/04 01:41:23;;;;;;;8.40;6.10;;;;;;;;;;5067386;28;20422;-64
2021/07/04 01:43:49;;;;;;;7.43;5.67;;;;;;;;;;5055490;28;20448;-64
2021/07/04 01:46:15;;;;;;;7.03;6.27;;;;;;;;;;5060120;28;20519;-66
2021/07/04 01:48:41;;;;;;;8.03;5.63;;;;;;;;;;5074154;28;20775;-65
2021/07/04 01:51:07;;;;;;;7.83;6.20;;;;;;;;;;5069974;28;20544;-64
2021/07/04 01:53:35;;;;;;;9.07;6.27;;;;;;;;;;5055401;28;20421;-64
2021/07/04 01:56:04;;;;;;;7.43;6.40;;;;;;;;;;5058977;28;20432;-65
2021/07/04 01:58:30;;;;;;;7.20;6.30;;;;;;;;;;5075517;28;20503;-64
2021/07/04 02:00:56;;;;;;;8.13;5.97;;;;;;;;;;5074550;28;20432;-65
2021/07/04 02:03:22;;;;;;;6.90;6.13;;;;;;;;;;5075227;28;20457;-65
2021/07/04 02:05:48;;;;;;;7.80;6.13;;;;;;;;;;5072752;28;20492;-66
2021/07/04 02:08:14;;;;;;;5.70;4.67;;;;;;;;;;5055349;28;20401;-65
2021/07/04 02:10:40;;;;;;;9.33;6.03;;;;;;;;;;5055198;28;20397;-64
2021/07/04 02:13:07;;;;;;;6.17;5.57;;;;;;;;;;5075368;28;20484;-65
2021/07/04 02:15:34;;;;;;;8.97;6.30;;;;;;;;;;5075153;28;20401;-65
2021/07/04 02:18:04;;;;;;;9.97;6.73;;;;;;;;;;5074541;28;20425;-65
2021/07/04 02:20:33;;;;;;;7.97;6.20;;;;;;;;;;5075003;28;20530;-65
2021/07/04 02:23:02;;;;;;;8.57;6.37;;;;;;;;;;5073750;28;20467;-65
2021/07/04 02:25:29;;;;;;;7.20;6.20;;;;;;;;;;5074922;28;20396;-65
2021/07/04 02:27:55;;;;;;;6.43;5.83;;;;;;;;;;5072392;28;20421;-65
2021/07/04 02:30:21;;;;;;;11.77;7.20;;;;;;;;;;5074673;28;20397;-65
2021/07/04 02:32:47;;;;;;;6.73;5.57;;;;;;;;;;5073372;28;20448;-65
2021/07/04 02:35:14;;;;;;;6.63;5.83;;;;;;;;;;5074691;28;20382;-65
2021/07/04 02:37:40;;;;;;;9.10;7.03;;;;;;;;;;5057267;28;20417;-66
2021/07/04 02:40:06;;;;;;;8.87;6.67;;;;;;;;;;5054795;28;20490;-65
2021/07/04 02:42:33;;;;;;;7.40;6.30;;;;;;;;;;5067878;28;20437;-65
2021/07/04 02:45:00;;;;;;;9.87;6.27;;;;;;;;;;5078621;28;20809;-65
2021/07/04 02:47:27;;;;;;;7.47;6.17;;;;;;;;;;5082714;28;20420;-65
2021/07/04 02:49:53;;;;;;;8.03;6.47;;;;;;;;;;5094614;28;20404;-65
2021/07/04 02:52:19;;;;;;;10.77;7.60;;;;;;;;;;5080318;28;20448;-65
2021/07/04 02:54:45;;;;;;;7.80;5.87;;;;;;;;;;5074131;28;20403;-65
2021/07/04 02:57:11;;;;;;;7.83;6.27;;;;;;;;;;5062657;28;20440;-65
2021/07/04 02:59:37;;;;;;;8.73;6.83;;;;;;;;;;5054144;28;20497;-65
2021/07/04 03:02:03;;;;;;;8.10;6.87;;;;;;;;;;5068926;28;20472;-65
2021/07/04 03:04:29;;;;;;;7.30;6.47;;;;;;;;;;5094739;28;20865;-65
2021/07/04 03:06:57;;;;;;;9.57;7.97;;;;;;;;;;5066786;28;20924;-64
2021/07/04 03:09:23;;;;;;;8.77;6.50;;;;;;;;;;5074134;28;20456;-65
2021/07/04 03:11:49;;;;;;;8.67;6.80;;;;;;;;;;5072978;28;20421;-65
2021/07/04 03:14:15;;;;;;;6.47;5.57;;;;;;;;;;5073877;28;20917;-65
2021/07/04 03:16:41;;;;;;;9.33;6.07;;;;;;;;;;5066501;28;20479;-65
2021/07/04 03:19:07;;;;;;;6.93;6.23;;;;;;;;;;5053816;28;20496;-65
2021/07/04 03:21:33;;;;;;;9.90;7.10;;;;;;;;;;5057913;28;20427;-65
2021/07/04 03:23:59;;;;;;;8.27;6.77;;;;;;;;;;5074046;28;20472;-64
2021/07/04 03:26:25;;;;;;;8.53;6.70;;;;;;;;;;5072670;28;20431;-65
2021/07/04 03:28:51;;;;;;;8.47;6.30;;;;;;;;;;5073923;28;20893;-65
2021/07/04 03:31:17;;;;;;;7.77;6.97;;;;;;;;;;5072642;28;20404;-66
2021/07/04 03:33:43;;;;;;;7.03;5.93;;;;;;;;;;5073574;28;20425;-65
2021/07/04 03:36:09;;;;;;;6.57;5.87;;;;;;;;;;5073612;28;20402;-64
2021/07/04 03:38:35;;;;;;;7.23;6.37;;;;;;;;;;5072191;28;20482;-66
2021/07/04 03:41:01;;;;;;;7.80;6.50;;;;;;;;;;5079644;28;20826;-64
2021/07/04 03:43:27;;;;;;;8.63;6.57;;;;;;;;;;5077144;28;20657;-63
2021/07/04 03:45:53;;;;;;;8.47;6.47;;;;;;;;;;5070482;28;20453;-64
2021/07/04 03:48:20;;;;;;;7.20;6.30;;;;;;;;;;5059833;28;20429;-63
2021/07/04 03:50:46;;;;;;;9.73;6.40;;;;;;;;;;5073276;28;21050;-63
2021/07/04 03:53:12;;;;;;;9.20;6.27;;;;;;;;;;5063369;28;20493;-65
2021/07/04 03:55:38;;;;;;;6.80;5.70;;;;;;;;;;5053244;28;20457;-65
2021/07/04 03:58:04;;;;;;;7.93;6.50;;;;;;;;;;5063041;28;20433;-65
2021/07/04 04:00:30;;;;;;;7.10;6.30;;;;;;;;;;5073179;28;20889;-65
2021/07/04 04:02:56;;;;;;;8.93;6.20;;;;;;;;;;5072418;28;20510;-65
2021/07/04 04:05:23;;;;;;;6.43;5.57;;;;;;;;;;5072322;28;20424;-65
2021/07/04 04:07:49;;;;;;;8.13;6.70;;;;;;;;;;5064284;28;20526;-65
2021/07/04 04:10:15;;;;;;;7.50;6.30;;;;;;;;;;5053378;28;20781;-65
2021/07/04 04:12:42;;;;;;;6.87;5.90;;;;;;;;;;5059713;28;20441;-66
2021/07/04 04:15:09;;;;;;;9.17;7.00;;;;;;;;;;5073147;28;20405;-65
2021/07/04 04:17:35;;;;;;;7.63;6.40;;;;;;;;;;5066416;28;20465;-65
2021/07/04 04:20:01;;;;;;;7.70;6.17;;;;;;;;;;5052978;28;20898;-66
2021/07/04 04:22:27;;;;;;;6.80;5.90;;;;;;;;;;5052820;28;20461;-65
2021/07/04 04:24:53;;;;;;;10.27;6.20;;;;;;;;;;5052840;28;20980;-65
2021/07/04 04:27:19;;;;;;;9.20;6.30;;;;;;;;;;5052939;28;20418;-65
2021/07/04 04:29:45;;;;;;;8.17;5.90;;;;;;;;;;5052849;28;20451;-65
2021/07/04 04:32:11;;;;;;;7.30;6.10;;;;;;;;;;5054566;28;20790;-65
2021/07/04 04:34:37;;;;;;;7.37;6.20;;;;;;;;;;5073056;28;20476;-67
2021/07/04 04:37:04;;;;;;;5.83;5.23;;;;;;;;;;5068556;28;20518;-65
2021/07/04 04:39:30;;;;;;;8.23;6.13;;;;;;;;;;5052697;28;20773;-65
2021/07/04 04:41:56;;;;;;;7.70;5.50;;;;;;;;;;5053545;28;20430;-66
2021/07/04 04:44:22;;;;;;;11.17;5.77;;;;;;;;;;5071443;28;20547;-65
2021/07/04 04:46:48;;;;;;;8.10;6.27;;;;;;;;;;5072038;28;20913;-65
2021/07/04 04:49:14;;;;;;;8.17;6.67;;;;;;;;;;5072293;28;20400;-65
2021/07/04 04:51:41;;;;;;;6.67;5.63;;;;;;;;;;5072821;28;20423;-65
2021/07/04 04:54:07;;;;;;;7.37;5.83;;;;;;;;;;5071586;28;20455;-65
2021/07/04 04:56:34;;;;;;;6.27;5.20;;;;;;;;;;5072782;28;20415;-65
2021/07/04 04:59:00;;;;;;;8.30;6.20;;;;;;;;;;5071593;28;20804;-65
2021/07/04 05:01:28;;;;;;;8.27;6.07;;;;;;;;;;5075858;28;20932;-65
2021/07/04 05:03:54;;;;;;;7.30;6.20;;;;;;;;;;5059128;28;20500;-65
2021/07/04 05:06:20;;;;;;;7.10;6.00;;;;;;;;;;5056678;28;20449;-64
2021/07/04 05:08:46;;;;;;;6.07;5.27;;;;;;;;;;5071364;28;20849;-65
2021/07/04 05:11:12;;;;;;;7.20;6.20;;;;;;;;;;5074531;28;20537;-67
2021/07/04 05:13:38;;;;;;;6.57;5.87;;;;;;;;;;5079522;28;20585;-65
2021/07/04 05:16:05;;;;;;;7.20;5.90;;;;;;;;;;5076298;28;20412;-65
2021/07/04 05:18:31;;;;;;;7.33;6.17;;;;;;;;;;5062575;28;20721;-65
2021/07/04 05:20:58;;;;;;;5.90;4.70;;;;;;;;;;5056646;28;20439;-65
2021/07/04 05:23:24;;;;;;;7.73;6.00;;;;;;;;;;5067451;28;20480;-65
2021/07/04 05:25:50;;;;;;;8.07;6.43;;;;;;;;;;5076430;28;20405;-65
2021/07/04 05:28:16;;;;;;;6.60;5.70;;;;;;;;;;5067091;28;20903;-65
2021/07/04 05:30:42;;;;;;;6.97;5.30;;;;;;;;;;5056320;28;20413;-64
2021/07/04 05:33:09;;;;;;;6.20;5.20;;;;;;;;;;5056128;28;20553;-65
2021/07/04 05:35:35;;;;;;;8.40;5.13;;;;;;;;;;5056040;28;20770;-65
2021/07/04 05:38:01;;;;;;;6.33;5.40;;;;;;;;;;5055956;28;20551;-65
2021/07/04 05:40:27;;;;;;;6.37;4.90;;;;;;;;;;5056104;28;20405;-64
2021/07/04 05:42:54;;;;;;;6.07;5.27;;;;;;;;;;5061929;28;20789;-64
2021/07/04 05:45:24;;;;;;;7.43;5.53;;;;;;;;;;5065957;28;20453;-65
2021/07/04 05:47:50;;;;;;;6.20;5.60;;;;;;;;;;5055650;28;20426;-64
2021/07/04 05:50:16;;;;;;;6.83;6.03;;;;;;;;;;5055758;28;20482;-65
2021/07/04 05:52:42;;;;;;;5.63;5.00;;;;;;;;;;5055839;28;20772;-65
2021/07/04 05:55:09;;;;;;;6.00;5.40;;;;;;;;;;5054264;28;20428;-65
2021/07/04 05:57:35;;;;;;;5.30;4.80;;;;;;;;;;5056863;28;20426;-64
2021/07/04 06:00:01;;;;;;;5.40;4.70;;;;;;;;;;5093572;28;20463;-64
2021/07/04 06:02:27;;;;;;;6.03;4.57;;;;;;;;;;5092123;28;20438;-65
2021/07/04 06:04:53;;;;;;;5.47;4.80;;;;;;;;;;5075233;28;20536;-65
2021/07/04 06:07:19;;;;;;;5.43;4.50;;;;;;;;;;5074481;28;20543;-66
2021/07/04 06:09:45;;;;;;;6.07;5.47;;;;;;;;;;5055264;28;20918;-65
2021/07/04 06:12:11;;;;;;;6.17;5.33;;;;;;;;;;5055116;28;20487;-65
2021/07/04 06:14:37;;;;;;;5.97;5.30;;;;;;;;;;5073872;28;20456;-65
2021/07/04 06:17:04;;;;;;;7.27;5.90;;;;;;;;;;5073684;28;20424;-64
2021/07/04 06:19:30;;;;;;;6.60;4.83;;;;;;;;;;5074261;28;20424;-64
2021/07/04 06:21:56;;;;;;;5.60;4.80;;;;;;;;;;5074822;28;20807;-64
2021/07/04 06:24:22;;;;;;;5.30;4.50;;;;;;;;;;5073538;28;20488;-64
2021/07/04 06:26:48;;;;;;;5.87;5.27;;;;;;;;;;5074805;28;20393;-64
2021/07/04 06:29:15;;;;;;;5.60;4.43;;;;;;;;;;5073656;28;20420;-64
2021/07/04 06:31:41;;;;;;;5.77;4.77;;;;;;;;;;5073568;28;20445;-66
2021/07/04 06:34:07;;;;;;;5.60;4.43;;;;;;;;;;5073381;28;20516;-65
2021/07/04 06:36:33;;;;;;;7.83;4.90;;;;;;;;;;5074835;28;20419;-65
2021/07/04 06:38:59;;;;;;;6.27;5.30;;;;;;;;;;5073724;28;20424;-64
2021/07/04 06:41:25;;;;;;;5.70;4.67;;;;;;;;;;5074799;28;20401;-65
2021/07/04 06:43:52;;;;;;;6.73;4.60;;;;;;;;;;5073704;28;20464;-65
2021/07/04 06:46:18;;;;;;;7.03;5.23;;;;;;;;;;5074365;28;20401;-65
2021/07/04 06:48:45;;;;;;;5.40;3.90;;;;;;;;;;5073345;28;20943;-65
2021/07/04 06:51:11;;;;;;;6.50;4.40;;;;;;;;;;5072899;28;20762;-65
2021/07/04 06:53:37;;;;;;;4.83;4.07;;;;;;;;;;5070416;28;20448;-64
2021/07/04 06:56:04;;;;;;;6.83;5.27;;;;;;;;;;5054298;28;20407;-64
2021/07/04 06:58:30;;;;;;;5.13;4.27;;;;;;;;;;5062215;28;20424;-65
2021/07/04 07:00:56;;;;;;;6.03;3.90;;;;;;;;;;5073958;28;20398;-65
2021/07/04 07:03:22;;;;;;;11.33;6.00;;;;;;;;;;5072474;28;20552;-64
2021/07/04 07:05:48;;;;;;;5.80;4.50;;;;;;;;;;5073897;28;20400;-64
2021/07/04 07:08:14;;;;;;;6.50;3.57;;;;;;;;;;5067544;28;20421;-64
2021/07/04 07:10:40;;;;;;;4.07;3.40;;;;;;;;;;5053701;28;20446;-64
2021/07/04 07:13:06;;;;;;;6.40;3.67;;;;;;;;;;5078883;28;20448;-64
2021/07/04 07:15:32;;;;;;;4.50;3.60;;;;;;;;;;5052486;28;20432;-65
2021/07/04 07:17:59;;;;;;;4.90;4.07;;;;;;;;;;5073154;28;20424;-65
2021/07/04 07:20:25;;;;;;;4.50;3.63;;;;;;;;;;5054085;28;20746;-64
2021/07/04 07:22:51;;;;;;;4.00;3.03;;;;;;;;;;5067845;28;20975;-67
2021/07/04 07:25:17;;;;;;;4.90;3.63;;;;;;;;;;5073023;28;20460;-65
2021/07/04 07:27:44;;;;;;;4.83;3.90;;;;;;;;;;5073052;28;20413;-66
2021/07/04 07:30:11;;;;;;;5.60;3.90;;;;;;;;;;5072459;28;20423;-67
2021/07/04 07:32:37;;;;;;;6.13;3.00;;;;;;;;;;5072730;28;20953;-67
2021/07/04 07:35:07;;;;;;;3.23;2.63;;;;;;;;;;5072006;28;20429;-67
2021/07/04 07:37:33;;;;;;;4.37;3.07;;;;;;;;;;5072766;28;20425;-67
2021/07/04 07:39:59;;;;;;;3.73;3.10;;;;;;;;;;5075606;28;20427;-67
2021/07/04 07:42:25;;;;;;;3.50;2.80;;;;;;;;;;5080290;28;20443;-66
2021/07/04 07:44:51;;;;;;;4.23;3.03;;;;;;;;;;5072118;28;20802;-66
2021/07/04 07:47:17;;;;;;;5.40;3.50;;;;;;;;;;5073171;28;20420;-65
2021/07/04 07:49:43;;;;;;;4.70;3.63;;;;;;;;;;5058380;28;20520;-65
2021/07/04 07:52:10;;;;;;;4.13;3.47;;;;;;;;;;5053176;28;20424;-65
2021/07/04 07:54:36;;;;;;;3.43;2.93;;;;;;;;;;5064496;28;20570;-66
2021/07/04 07:57:02;;;;;;;3.53;2.63;;;;;;;;;;5073150;28;20407;-66
2021/07/04 07:59:29;;;;;;;3.60;2.57;;;;;;;;;;5071048;28;20455;-66
2021/07/04 08:01:55;;;;;;;5.87;3.00;;;;;;;;;;5073130;28;21002;-66
2021/07/04 08:04:22;;;;;;;4.67;2.80;;;;;;;;;;5061544;28;20453;-66
2021/07/04 08:06:48;;;;;;;4.70;3.37;;;;;;;;;;5053140;28;20402;-66
2021/07/04 08:09:14;;;;;;;3.20;2.60;;;;;;;;;;5073028;28;20929;-66
2021/07/04 08:11:40;;;;;;;4.20;2.60;;;;;;;;;;5073697;28;20415;-66
2021/07/04 08:14:06;;;;;;;4.30;3.10;;;;;;;;;;5070944;28;20456;-66
2021/07/04 08:16:32;;;;;;;4.07;2.70;;;;;;;;;;5073152;28;20416;-66
2021/07/04 08:18:58;;;;;;;4.00;2.60;;;;;;;;;;5071567;28;20429;-65
2021/07/04 08:21:26;;;;;;;2.87;1.97;;;;;;;;;;5073227;28;20420;-65
2021/07/04 08:23:52;;;;;;;3.03;2.40;;;;;;;;;;5071449;28;20472;-65
2021/07/04 08:26:19;;;;;;;3.97;2.70;;;;;;;;;;5072665;28;20449;-65
2021/07/04 08:28:45;;;;;;;3.17;2.80;;;;;;;;;;5067364;28;20941;-66
2021/07/04 08:31:11;;;;;;;3.43;3.00;;;;;;;;;;5052839;28;20390;-66
2021/07/04 08:33:37;;;;;;;3.40;2.80;;;;;;;;;;5055643;28;20497;-66
2021/07/04 08:36:03;;;;;;;3.73;2.70;;;;;;;;;;5075686;28;20409;-66
2021/07/04 08:38:29;;;;;;;3.30;2.30;;;;;;;;;;5090299;28;20930;-67
2021/07/04 08:40:55;;;;;;;4.03;3.20;;;;;;;;;;5075121;28;20928;-66
2021/07/04 08:43:25;;;;;;;4.27;3.00;;;;;;;;;;5074533;28;20826;-66
2021/07/04 08:45:51;;;;;;;4.97;2.93;;;;;;;;;;5075680;28;20425;-65
2021/07/04 08:48:17;;;;;;;3.80;2.77;;;;;;;;;;5076616;28;20439;-65
2021/07/04 08:50:43;;;;;;;3.70;2.37;;;;;;;;;;5060511;28;20487;-66
2021/07/04 08:53:09;;;;;;;3.73;2.57;;;;;;;;;;5056548;28;20425;-66
2021/07/04 08:55:35;;;;;;;3.60;2.57;;;;;;;;;;5056640;28;20436;-66
2021/07/04 08:58:01;;;;;;;3.33;2.57;;;;;;;;;;5056753;28;20804;-66
2021/07/04 09:00:27;;;;;;;3.60;2.60;;;;;;;;;;5068944;28;20432;-66
2021/07/04 09:02:54;;;;;;;3.90;3.00;;;;;;;;;;5076262;28;20743;-66
2021/07/04 09:05:20;;;;;;;4.23;2.63;;;;;;;;;;5063996;28;20461;-66
2021/07/04 09:07:46;;;;;;;2.90;2.40;;;;;;;;;;5093900;28;20503;-66
2021/07/04 09:10:14;;;;;;;3.60;2.47;;;;;;;;;;5084866;28;20548;-66
2021/07/04 09:12:42;;;;;;;2.40;2.10;;;;;;;;;;5076427;28;20416;-66
2021/07/04 09:15:15;;;;;;;2.90;2.30;;;;;;;;;;5073778;28;20432;-65
2021/07/04 09:17:45;;;;;;;2.50;2.03;;;;;;;;;;5076597;28;20397;-66
2021/07/04 09:20:12;;;;;;;2.97;2.20;;;;;;;;;;5065965;28;20475;-66
2021/07/04 09:22:40;;;;;;;3.20;2.20;;;;;;;;;;5089715;22;20888;-69
2021/07/04 09:25:10;;;;;;;2.77;2.20;;;;;;;;;;5087190;28;20460;-68
2021/07/04 09:27:36;;;;;;;3.43;2.00;;;;;;;;;;5076529;28;20807;-68
2021/07/04 09:30:03;;;;;;;2.90;1.73;;;;;;;;;;5086158;28;20421;-69
2021/07/04 09:32:30;;;;;;;2.80;2.30;;;;;;;;;;5111888;28;20414;-68
2021/07/04 09:35:00;;;;;;;3.80;2.63;;;;;;;;;;5088021;28;20477;-68
2021/07/04 09:37:33;;;;;;;3.07;1.80;;;;;;;;;;5076032;28;20464;-68
2021/07/04 09:40:11;;;;;;;2.80;2.03;;;;;;;;;;5061957;28;20456;-68
2021/07/04 09:42:54;;;;;;;2.50;1.70;;;;;;;;;;5055932;28;20413;-69
2021/07/04 09:45:20;;;;;;;2.60;2.10;;;;;;;;;;5055410;28;20549;-68
2021/07/04 09:47:56;;;;;;;2.43;1.73;;;;;;;;;;5055631;28;20394;-68
2021/07/04 09:50:23;;;;;;;2.50;1.80;;;;;;;;;;5056122;28;20417;-68
2021/07/04 09:53:15;;;;;;;2.90;1.93;;;;;;;;;;5055614;28;20832;-69
2021/07/04 09:55:41;;;;;;;2.00;1.50;;;;;;;;;;5066437;28;20523;-68
2021/07/04 09:58:11;;;;;;;2.80;1.80;;;;;;;;;;5075749;28;20909;-68
2021/07/04 10:00:39;;;;;;;3.27;1.80;;;;;;;;;;5063250;28;20417;-69
2021/07/04 10:03:11;;;;;;;2.40;1.63;;;;;;;;;;5055765;28;20410;-68
2021/07/04 10:05:45;;;;;;;2.53;1.90;;;;;;;;;;5066825;28;20424;-68
2021/07/04 10:08:21;;;;;;;2.40;1.67;;;;;;;;;;5075774;28;20439;-68
2021/07/04 10:10:47;;;;;;;3.43;1.73;;;;;;;;;;5062188;28;20504;-69
2021/07/04 10:13:13;;;;;;;3.23;1.70;;;;;;;;;;5066717;28;20435;-68
2021/07/04 10:15:40;;;;;;;2.73;1.70;;;;;;;;;;5072049;28;20429;-68
2021/07/04 10:18:08;;;;;;;2.03;1.30;;;;;;;;;;5055618;28;20397;-69
2021/07/04 10:20:34;;;;;;;2.50;1.50;;;;;;;;;;5066381;28;20828;-69
2021/07/04 10:23:00;;;;;;;3.17;1.90;;;;;;;;;;5075999;28;20519;-68
2021/07/04 10:25:26;;;;;;;2.30;1.80;;;;;;;;;;5075011;28;20435;-69
2021/07/04 10:27:52;;;;;;;2.90;1.90;;;;;;;;;;5075961;28;20706;-68
2021/07/04 10:30:21;;;;;;;2.77;2.30;;;;;;;;;;5074606;28;20421;-68
2021/07/04 10:33:06;;;;;;;2.77;1.80;;;;;;;;;;5075235;28;20940;-68
2021/07/04 10:35:33;;;;;;;3.23;1.97;;;;;;;;;;5073415;28;20924;-68
2021/07/04 10:38:12;;;;;;;2.30;1.80;;;;;;;;;;5075491;28;20424;-68
2021/07/04 10:40:38;;;;;;;2.40;1.80;;;;;;;;;;5074421;28;20424;-68
2021/07/04 10:43:04;;;;;;;3.10;2.27;;;;;;;;;;5075063;28;20420;-68
2021/07/04 10:45:30;;;;;;;2.50;1.90;;;;;;;;;;5073980;28;20421;-68
2021/07/04 10:47:58;;;;;;;3.50;1.70;;;;;;;;;;5071476;28;20452;-68
2021/07/04 10:50:24;;;;;;;3.10;1.97;;;;;;;;;;5074449;28;20423;-68
2021/07/04 10:52:53;;;;;;;2.80;1.80;;;;;;;;;;5075051;28;20439;-68
2021/07/04 10:55:39;;;;;;;2.83;1.83;;;;;;;;;;5069064;28;20436;-68
2021/07/04 10:58:05;;;;;;;2.97;1.73;;;;;;;;;;5054075;28;20398;-67
2021/07/04 11:00:31;;;;;;;2.47;1.80;;;;;;;;;;5054700;28;20463;-68
2021/07/04 11:02:59;;;;;;;5.30;1.33;;;;;;;;;;5054429;28;20453;-68
2021/07/04 11:05:35;;;;;;;2.73;1.90;;;;;;;;;;5060110;28;20487;-68
2021/07/04 11:08:09;;;;;;;2.80;1.77;;;;;;;;;;5074814;28;20396;-68
2021/07/04 11:10:36;;;;;;;2.77;2.00;;;;;;;;;;5066840;28;20944;-68
2021/07/04 11:13:09;;;;;;;2.60;1.90;;;;;;;;;;5054398;28;20421;-67
2021/07/04 11:15:36;;;;;;;2.23;1.47;;;;;;;;;;5060994;28;20920;-68
2021/07/04 11:18:02;;;;;;;2.20;1.53;;;;;;;;;;5074209;28;20435;-67
2021/07/04 11:20:40;;;;;;;3.10;2.07;;;;;;;;;;5067936;28;20918;-68
2021/07/04 11:23:08;;;;;;;3.33;2.17;;;;;;;;;;5053908;28;20440;-68
2021/07/04 11:25:55;;;;;;;4.40;1.80;;;;;;;;;;5059908;28;20503;-68
2021/07/04 11:28:22;;;;;;;2.67;2.20;;;;;;;;;;5072674;28;20397;-68
2021/07/04 11:30:55;;;;;;;2.57;1.90;;;;;;;;;;5076785;28;20757;-68
2021/07/04 11:33:35;;;;;;;3.30;2.20;;;;;;;;;;5094431;28;20423;-68
2021/07/04 11:36:19;;;;;;;3.83;1.90;;;;;;;;;;5083015;28;20424;-67
2021/07/04 11:38:46;;;;;;;3.03;2.10;;;;;;;;;;5074132;28;20957;-67
2021/07/04 11:41:14;;;;;;;2.97;2.23;;;;;;;;;;5072947;28;20525;-67
2021/07/04 11:43:41;;;;;;;3.60;2.17;;;;;;;;;;5073984;28;20956;-67
2021/07/04 11:46:17;;;;;;;2.40;1.83;;;;;;;;;;5061626;28;20426;-69
2021/07/04 11:48:55;;;;;;;3.00;2.10;;;;;;;;;;5053919;28;20413;-68
2021/07/04 11:51:29;;;;;;;2.70;1.93;;;;;;;;;;5064817;28;20750;-68
2021/07/04 11:53:56;;;;;;;3.40;1.90;;;;;;;;;;5088106;28;20502;-68
2021/07/04 11:56:22;;;;;;;2.67;2.07;;;;;;;;;;5072824;28;20424;-68
2021/07/04 11:58:48;;;;;;;5.17;2.03;;;;;;;;;;5073550;28;20401;-68
2021/07/04 12:01:19;;;;;;;3.60;1.97;;;;;;;;;;5062635;28;20783;-68
2021/07/04 12:03:52;;;;;;;3.43;2.13;;;;;;;;;;5053248;28;20453;-68
2021/07/04 12:06:18;;;;;;;2.67;1.70;;;;;;;;;;5063908;28;20429;-68
2021/07/04 12:08:55;;;;;;;3.70;2.60;;;;;;;;;;5073233;28;20397;-67
2021/07/04 12:11:39;;;;;;;2.63;1.83;;;;;;;;;;5072701;28;20424;-67
2021/07/04 12:14:20;;;;;;;3.20;2.20;;;;;;;;;;5073963;28;20452;-68
2021/07/04 12:16:46;;;;;;;3.10;1.97;;;;;;;;;;5070357;28;20428;-68
2021/07/04 12:19:24;;;;;;;2.70;1.93;;;;;;;;;;5073477;28;20476;-68
2021/07/04 12:21:50;;;;;;;3.47;2.10;;;;;;;;;;5072830;28;20436;-68
2021/07/04 12:24:16;;;;;;;2.70;2.00;;;;;;;;;;5073161;28;20468;-68
2021/07/04 12:26:46;;;;;;;3.10;2.33;;;;;;;;;;5064571;28;20785;-68
2021/07/04 12:29:12;;;;;;;3.30;2.30;;;;;;;;;;5053990;28;20417;-68
2021/07/04 12:31:38;;;;;;;3.00;2.27;;;;;;;;;;5061668;28;20625;-67
2021/07/04 12:34:04;;;;;;;2.80;2.20;;;;;;;;;;5074088;28;20536;-67
2021/07/04 12:36:33;;;;;;;2.67;1.97;;;;;;;;;;5073370;28;20779;-68
2021/07/04 12:39:07;;;;;;;2.40;1.80;;;;;;;;;;5074041;28;20408;-67
2021/07/04 12:41:34;;;;;;;3.60;2.40;;;;;;;;;;5075625;28;20840;-68
2021/07/04 12:44:11;;;;;;;2.80;2.30;;;;;;;;;;5071935;28;20554;-67
2021/07/04 12:46:37;;;;;;;2.47;1.63;;;;;;;;;;5072472;28;20818;-67
2021/07/04 12:49:04;;;;;;;2.90;1.90;;;;;;;;;;5073253;28;20419;-67
2021/07/04 12:51:33;;;;;;;3.30;2.17;;;;;;;;;;5062428;28;21009;-68
2021/07/04 12:53:59;;;;;;;2.40;1.87;;;;;;;;;;5052805;28;20425;-68
2021/07/04 12:56:25;;;;;;;3.27;2.27;;;;;;;;;;5052995;28;20418;-68
2021/07/04 12:58:58;;;;;;;3.03;1.97;;;;;;;;;;5053372;28;20735;-67
2021/07/04 13:01:30;;;;;;;3.03;2.30;;;;;;;;;;5058111;28;20519;-67
2021/07/04 13:04:13;;;;;;;2.60;1.97;;;;;;;;;;5073352;28;20547;-67
2021/07/04 13:06:42;;;;;;;2.43;1.80;;;;;;;;;;5072827;28;20492;-67
2021/07/04 13:09:18;;;;;;;3.23;2.37;;;;;;;;;;5073580;28;20404;-67
2021/07/04 13:11:56;;;;;;;2.90;1.80;;;;;;;;;;5072481;28;20427;-67
2021/07/04 13:14:31;;;;;;;3.30;2.27;;;;;;;;;;5073658;28;20393;-67
2021/07/04 13:16:57;;;;;;;2.83;2.30;;;;;;;;;;5072447;28;20420;-67
2021/07/04 13:19:25;;;;;;;5.03;2.03;;;;;;;;;;5073151;28;20401;-67
2021/07/04 13:21:52;;;;;;;4.07;1.90;;;;;;;;;;5068227;28;20436;-67
2021/07/04 13:24:23;;;;;;;2.90;2.10;;;;;;;;;;5056328;28;20458;-67
2021/07/04 13:26:50;;;;;;;2.93;2.30;;;;;;;;;;5061943;28;20463;-68
2021/07/04 13:29:16;;;;;;;3.00;2.13;;;;;;;;;;5076319;28;20435;-67
2021/07/04 13:31:42;;;;;;;3.43;2.63;;;;;;;;;;5065467;28;20455;-69
2021/07/04 13:34:23;;;;;;;3.73;2.10;;;;;;;;;;5056116;28;20928;-68
2021/07/04 13:36:53;;;;;;;4.17;2.27;;;;;;;;;;5061314;28;20433;-68
2021/07/04 13:39:19;;;;;;;3.60;2.73;;;;;;;;;;5076478;28;20765;-68
2021/07/04 13:41:45;;;;;;;3.43;2.40;;;;;;;;;;5075130;28;20432;-68
2021/07/04 13:44:11;;;;;;;3.23;2.27;;;;;;;;;;5076254;28;20456;-68
2021/07/04 13:46:38;;;;;;;3.47;2.20;;;;;;;;;;5072155;28;20425;-68
2021/07/04 13:49:04;;;;;;;4.00;2.80;;;;;;;;;;5067419;28;20436;-67
2021/07/04 13:51:30;;;;;;;3.67;2.10;;;;;;;;;;5080225;28;20430;-68
2021/07/04 13:53:56;;;;;;;3.10;2.43;;;;;;;;;;5075945;28;20452;-67
2021/07/04 13:56:22;;;;;;;4.77;2.60;;;;;;;;;;5075276;28;20454;-67
2021/07/04 13:58:48;;;;;;;3.87;3.00;;;;;;;;;;5075901;28;20404;-67
2021/07/04 14:01:14;;;;;;;3.37;2.30;;;;;;;;;;5076053;28;20408;-67
2021/07/04 14:03:40;;;;;;;4.30;2.77;;;;;;;;;;5056156;28;20559;-67
2021/07/04 14:06:06;;;;;;;3.47;2.33;;;;;;;;;;5055594;28;20894;-67
2021/07/04 14:08:32;;;;;;;3.33;2.50;;;;;;;;;;5069803;28;20425;-67
2021/07/04 14:11:01;;;;;;;2.70;2.20;;;;;;;;;;5056979;28;20875;-67
2021/07/04 14:13:27;;;;;;;2.93;2.27;;;;;;;;;;5071894;28;20448;-68
2021/07/04 14:15:54;;;;;;;3.30;2.60;;;;;;;;;;5077189;28;20405;-68
2021/07/04 14:18:20;;;;;;;3.90;2.63;;;;;;;;;;5060305;28;20433;-67
2021/07/04 14:20:46;;;;;;;2.90;2.13;;;;;;;;;;5055537;28;20408;-68
2021/07/04 14:23:12;;;;;;;3.70;2.30;;;;;;;;;;5054832;28;20468;-68
2021/07/04 14:25:38;;;;;;;3.50;2.50;;;;;;;;;;5088125;28;20427;-68
2021/07/04 14:28:05;;;;;;;2.80;2.20;;;;;;;;;;5081201;28;20424;-68
2021/07/04 14:30:31;;;;;;;3.70;2.50;;;;;;;;;;5074503;28;20489;-67
2021/07/04 14:32:58;;;;;;;3.43;2.77;;;;;;;;;;5062262;28;20445;-67
2021/07/04 14:35:25;;;;;;;3.40;2.50;;;;;;;;;;5056200;28;20405;-68
2021/07/04 14:37:52;;;;;;;3.70;2.20;;;;;;;;;;5066324;28;20819;-68
2021/07/04 14:40:19;;;;;;;2.67;2.13;;;;;;;;;;5075291;28;20440;-69
2021/07/04 14:42:45;;;;;;;3.83;2.47;;;;;;;;;;5070594;28;20536;-68
2021/07/04 14:45:12;;;;;;;3.33;2.43;;;;;;;;;;5054905;28;20873;-68